sensor_id;sensor_type;location;lat;lon;timestamp;pressure;altitude;pressure_sealevel;temperature;humidity
35577;BME280;21680;52.400;16.920;2023-04-01T00:00:51;98812.98;;;7.95;97.90
35577;BME280;21680;52.400;16.920;2023-04-01T00:03:17;98815.05;;;7.93;97.90
35577;BME280;21680;52.400;16.920;2023-04-01T00:05:43;98813.50;;;7.92;97.96
35577;BME280;21680;52.400;16.920;2023-04-01T00:08:08;98812.39;;;7.93;98.07
35577;BME280;21680;52.400;16.920;2023-04-01T00:10:33;98811.38;;;7.92;98.22
35577;BME280;21680;52.400;16.920;2023-04-01T00:12:59;98808.07;;;7.91;98.24
35577;BME280;21680;52.400;16.920;2023-04-01T00:15:25;98809.23;;;7.92;98.36
35577;BME280;21680;52.400;16.920;2023-04-01T00:17:50;98805.98;;;7.94;98.54
35577;BME280;21680;52.400;16.920;2023-04-01T00:20:15;98801.38;;;7.93;98.46
35577;BME280;21680;52.400;16.920;2023-04-01T00:22:41;98804.05;;;7.93;98.60
35577;BME280;21680;52.400;16.920;2023-04-01T00:25:06;98804.13;;;7.92;98.61
35577;BME280;21680;52.400;16.920;2023-04-01T00:27:32;98804.61;;;7.92;98.85
35577;BME280;21680;52.400;16.920;2023-04-01T00:29:57;98798.31;;;7.94;98.93
35577;BME280;21680;52.400;16.920;2023-04-01T00:32:23;98800.77;;;7.94;98.88
35577;BME280;21680;52.400;16.920;2023-04-01T00:34:51;98804.73;;;7.93;98.93
35577;BME280;21680;52.400;16.920;2023-04-01T00:37:17;98797.63;;;7.93;98.90
35577;BME280;21680;52.400;16.920;2023-04-01T00:39:43;98799.77;;;7.93;98.96
35577;BME280;21680;52.400;16.920;2023-04-01T00:42:09;98801.52;;;7.93;99.10
35577;BME280;21680;52.400;16.920;2023-04-01T00:44:36;98800.82;;;7.93;99.00
35577;BME280;21680;52.400;16.920;2023-04-01T00:47:02;98797.28;;;7.93;99.27
35577;BME280;21680;52.400;16.920;2023-04-01T00:49:38;98795.77;;;7.95;99.26
35577;BME280;21680;52.400;16.920;2023-04-01T00:52:07;98794.42;;;7.96;99.34
35577;BME280;21680;52.400;16.920;2023-04-01T00:54:34;98793.52;;;7.97;99.40
35577;BME280;21680;52.400;16.920;2023-04-01T00:57:05;98790.55;;;7.95;99.38
35577;BME280;21680;52.400;16.920;2023-04-01T00:59:36;98787.68;;;7.96;99.44
35577;BME280;21680;52.400;16.920;2023-04-01T01:02:05;98787.49;;;7.96;99.47
35577;BME280;21680;52.400;16.920;2023-04-01T01:04:33;98784.17;;;7.95;99.48
35577;BME280;21680;52.400;16.920;2023-04-01T01:12:06;98781.05;;;7.94;99.74
35577;BME280;21680;52.400;16.920;2023-04-01T01:14:48;98782.00;;;7.93;99.79
35577;BME280;21680;52.400;16.920;2023-04-01T01:20:48;98781.77;;;7.93;99.94
35577;BME280;21680;52.400;16.920;2023-04-01T01:28:57;98779.66;;;7.99;100.00
35577;BME280;21680;52.400;16.920;2023-04-01T01:31:58;98779.56;;;8.00;100.00
35577;BME280;21680;52.400;16.920;2023-04-01T01:34:36;98779.14;;;8.01;100.00
35577;BME280;21680;52.400;16.920;2023-04-01T01:37:09;98774.23;;;8.03;100.00
35577;BME280;21680;52.400;16.920;2023-04-01T01:39:36;98775.77;;;8.04;100.00
35577;BME280;21680;52.400;16.920;2023-04-01T01:42:04;98779.98;;;8.05;100.00
35577;BME280;21680;52.400;16.920;2023-04-01T01:44:32;98776.88;;;8.06;100.00
35577;BME280;21680;52.400;16.920;2023-04-01T01:47:00;98781.35;;;8.08;100.00
35577;BME280;21680;52.400;16.920;2023-04-01T01:49:27;98782.32;;;8.10;100.00
35577;BME280;21680;52.400;16.920;2023-04-01T01:51:56;98780.55;;;8.10;100.00
35577;BME280;21680;52.400;16.920;2023-04-01T01:54:21;98779.67;;;8.10;100.00
35577;BME280;21680;52.400;16.920;2023-04-01T01:56:51;98780.97;;;8.09;100.00
35577;BME280;21680;52.400;16.920;2023-04-01T01:59:20;98782.16;;;8.10;100.00
35577;BME280;21680;52.400;16.920;2023-04-01T02:01:49;98777.85;;;8.08;100.00
35577;BME280;21680;52.400;16.920;2023-04-01T02:04:16;98779.10;;;8.08;100.00
35577;BME280;21680;52.400;16.920;2023-04-01T02:06:53;98777.86;;;8.08;100.00
35577;BME280;21680;52.400;16.920;2023-04-01T02:09:20;98781.22;;;8.08;100.00
35577;BME280;21680;52.400;16.920;2023-04-01T02:11:52;98777.92;;;8.07;100.00
35577;BME280;21680;52.400;16.920;2023-04-01T02:14:27;98778.56;;;8.05;100.00
35577;BME280;21680;52.400;16.920;2023-04-01T02:16:56;98775.79;;;8.04;100.00
35577;BME280;21680;52.400;16.920;2023-04-01T02:19:27;98777.05;;;8.04;100.00
35577;BME280;21680;52.400;16.920;2023-04-01T02:21:59;98775.64;;;8.03;100.00
35577;BME280;21680;52.400;16.920;2023-04-01T02:24:27;98773.12;;;8.04;100.00
35577;BME280;21680;52.400;16.920;2023-04-01T02:26:55;98773.83;;;8.04;100.00
35577;BME280;21680;52.400;16.920;2023-04-01T02:29:21;98773.04;;;8.05;100.00
35577;BME280;21680;52.400;16.920;2023-04-01T02:31:49;98772.05;;;8.04;100.00
35577;BME280;21680;52.400;16.920;2023-04-01T02:34:15;98772.81;;;8.03;100.00
35577;BME280;21680;52.400;16.920;2023-04-01T02:36:41;98767.77;;;8.04;100.00
35577;BME280;21680;52.400;16.920;2023-04-01T02:39:07;98773.90;;;8.03;100.00
35577;BME280;21680;52.400;16.920;2023-04-01T02:41:42;98768.09;;;8.02;100.00
35577;BME280;21680;52.400;16.920;2023-04-01T02:44:09;98773.35;;;8.00;100.00
35577;BME280;21680;52.400;16.920;2023-04-01T02:46:35;98770.05;;;7.99;100.00
35577;BME280;21680;52.400;16.920;2023-04-01T02:49:01;98774.30;;;7.99;100.00
35577;BME280;21680;52.400;16.920;2023-04-01T02:51:26;98778.19;;;8.00;100.00
35577;BME280;21680;52.400;16.920;2023-04-01T02:53:52;98781.27;;;7.99;100.00
35577;BME280;21680;52.400;16.920;2023-04-01T02:56:17;98778.17;;;7.97;100.00
35577;BME280;21680;52.400;16.920;2023-04-01T02:58:44;98781.54;;;7.97;100.00
35577;BME280;21680;52.400;16.920;2023-04-01T03:01:09;98786.48;;;7.98;100.00
35577;BME280;21680;52.400;16.920;2023-04-01T03:03:35;98788.39;;;7.99;100.00
35577;BME280;21680;52.400;16.920;2023-04-01T03:06:12;98791.91;;;7.99;100.00
35577;BME280;21680;52.400;16.920;2023-04-01T03:08:38;98791.08;;;7.98;100.00
35577;BME280;21680;52.400;16.920;2023-04-01T03:11:03;98788.06;;;7.98;100.00
35577;BME280;21680;52.400;16.920;2023-04-01T03:13:29;98790.91;;;7.98;100.00
35577;BME280;21680;52.400;16.920;2023-04-01T03:15:54;98793.09;;;7.97;100.00
35577;BME280;21680;52.400;16.920;2023-04-01T03:18:20;98794.98;;;7.96;100.00
35577;BME280;21680;52.400;16.920;2023-04-01T03:20:45;98795.13;;;7.96;100.00
35577;BME280;21680;52.400;16.920;2023-04-01T03:23:11;98791.80;;;7.95;100.00
35577;BME280;21680;52.400;16.920;2023-04-01T03:25:37;98791.52;;;7.94;100.00
35577;BME280;21680;52.400;16.920;2023-04-01T03:28:02;98790.18;;;7.93;100.00
35577;BME280;21680;52.400;16.920;2023-04-01T03:30:28;98787.41;;;7.92;100.00
35577;BME280;21680;52.400;16.920;2023-04-01T03:32:56;98788.45;;;7.92;100.00
35577;BME280;21680;52.400;16.920;2023-04-01T03:35:22;98794.08;;;7.93;100.00
35577;BME280;21680;52.400;16.920;2023-04-01T03:37:47;98793.56;;;7.93;100.00
35577;BME280;21680;52.400;16.920;2023-04-01T03:40:13;98791.20;;;7.91;100.00
35577;BME280;21680;52.400;16.920;2023-04-01T03:42:38;98791.83;;;7.92;100.00
35577;BME280;21680;52.400;16.920;2023-04-01T03:45:04;98792.90;;;7.92;100.00
35577;BME280;21680;52.400;16.920;2023-04-01T03:47:30;98798.05;;;7.89;100.00
35577;BME280;21680;52.400;16.920;2023-04-01T03:49:56;98798.22;;;7.87;100.00
35577;BME280;21680;52.400;16.920;2023-04-01T03:52:21;98795.80;;;7.86;100.00
35577;BME280;21680;52.400;16.920;2023-04-01T03:54:47;98799.89;;;7.86;100.00
35577;BME280;21680;52.400;16.920;2023-04-01T03:57:12;98800.70;;;7.83;100.00
35577;BME280;21680;52.400;16.920;2023-04-01T03:59:37;98801.91;;;7.81;100.00
35577;BME280;21680;52.400;16.920;2023-04-01T04:02:03;98805.44;;;7.79;100.00
35577;BME280;21680;52.400;16.920;2023-04-01T04:04:28;98808.33;;;7.79;100.00
35577;BME280;21680;52.400;16.920;2023-04-01T04:06:54;98808.95;;;7.77;100.00
35577;BME280;21680;52.400;16.920;2023-04-01T04:09:19;98806.45;;;7.77;100.00
35577;BME280;21680;52.400;16.920;2023-04-01T04:11:45;98808.23;;;7.78;100.00
35577;BME280;21680;52.400;16.920;2023-04-01T04:14:10;98813.96;;;7.77;100.00
35577;BME280;21680;52.400;16.920;2023-04-01T04:16:36;98818.31;;;7.75;100.00
35577;BME280;21680;52.400;16.920;2023-04-01T04:19:04;98818.31;;;7.75;100.00
35577;BME280;21680;52.400;16.920;2023-04-01T04:21:30;98824.97;;;7.77;100.00
35577;BME280;21680;52.400;16.920;2023-04-01T04:23:55;98823.67;;;7.78;100.00
35577;BME280;21680;52.400;16.920;2023-04-01T04:26:21;98826.07;;;7.76;100.00
35577;BME280;21680;52.400;16.920;2023-04-01T04:28:46;98825.60;;;7.76;100.00
35577;BME280;21680;52.400;16.920;2023-04-01T04:31:12;98825.33;;;7.77;100.00
35577;BME280;21680;52.400;16.920;2023-04-01T04:33:37;98828.63;;;7.78;100.00
35577;BME280;21680;52.400;16.920;2023-04-01T04:36:03;98832.35;;;7.79;100.00
35577;BME280;21680;52.400;16.920;2023-04-01T04:38:29;98831.50;;;7.78;100.00
35577;BME280;21680;52.400;16.920;2023-04-01T04:40:55;98834.34;;;7.78;100.00
35577;BME280;21680;52.400;16.920;2023-04-01T04:43:20;98834.72;;;7.77;100.00
35577;BME280;21680;52.400;16.920;2023-04-01T04:45:46;98835.45;;;7.77;100.00
35577;BME280;21680;52.400;16.920;2023-04-01T04:48:13;98834.33;;;7.78;100.00
35577;BME280;21680;52.400;16.920;2023-04-01T04:50:42;98838.53;;;7.79;100.00
35577;BME280;21680;52.400;16.920;2023-04-01T04:53:10;98840.50;;;7.79;100.00
35577;BME280;21680;52.400;16.920;2023-04-01T04:55:35;98842.99;;;7.79;100.00
35577;BME280;21680;52.400;16.920;2023-04-01T04:58:00;98845.56;;;7.80;100.00
35577;BME280;21680;52.400;16.920;2023-04-01T05:00:26;98846.42;;;7.81;100.00
35577;BME280;21680;52.400;16.920;2023-04-01T05:02:51;98849.67;;;7.82;100.00
35577;BME280;21680;52.400;16.920;2023-04-01T05:05:16;98849.17;;;7.82;100.00
35577;BME280;21680;52.400;16.920;2023-04-01T05:07:42;98851.48;;;7.82;100.00
35577;BME280;21680;52.400;16.920;2023-04-01T05:10:08;98853.45;;;7.85;100.00
35577;BME280;21680;52.400;16.920;2023-04-01T05:12:33;98855.73;;;7.85;100.00
35577;BME280;21680;52.400;16.920;2023-04-01T05:15:04;98859.56;;;7.87;100.00
35577;BME280;21680;52.400;16.920;2023-04-01T05:17:30;98857.95;;;7.90;100.00
35577;BME280;21680;52.400;16.920;2023-04-01T05:19:56;98858.05;;;7.91;100.00
35577;BME280;21680;52.400;16.920;2023-04-01T05:22:21;98860.83;;;7.92;100.00
35577;BME280;21680;52.400;16.920;2023-04-01T05:24:46;98863.36;;;7.94;100.00
35577;BME280;21680;52.400;16.920;2023-04-01T05:27:11;98862.15;;;7.94;100.00
35577;BME280;21680;52.400;16.920;2023-04-01T05:29:37;98863.41;;;7.94;100.00
35577;BME280;21680;52.400;16.920;2023-04-01T05:32:02;98863.73;;;7.94;100.00
35577;BME280;21680;52.400;16.920;2023-04-01T05:34:27;98868.34;;;7.97;100.00
35577;BME280;21680;52.400;16.920;2023-04-01T05:36:52;98867.96;;;7.98;100.00
35577;BME280;21680;52.400;16.920;2023-04-01T05:39:18;98869.15;;;7.98;100.00
35577;BME280;21680;52.400;16.920;2023-04-01T05:41:43;98872.54;;;7.98;100.00
35577;BME280;21680;52.400;16.920;2023-04-01T05:44:11;98870.46;;;7.97;100.00
35577;BME280;21680;52.400;16.920;2023-04-01T05:46:37;98874.71;;;7.98;100.00
35577;BME280;21680;52.400;16.920;2023-04-01T05:49:02;98873.36;;;7.99;100.00
35577;BME280;21680;52.400;16.920;2023-04-01T05:51:27;98878.16;;;7.99;100.00
35577;BME280;21680;52.400;16.920;2023-04-01T05:53:53;98877.38;;;7.98;100.00
35577;BME280;21680;52.400;16.920;2023-04-01T05:56:18;98880.02;;;7.98;100.00
35577;BME280;21680;52.400;16.920;2023-04-01T05:58:46;98877.48;;;7.99;100.00
35577;BME280;21680;52.400;16.920;2023-04-01T06:01:15;98876.84;;;8.01;100.00
35577;BME280;21680;52.400;16.920;2023-04-01T06:03:40;98878.68;;;8.02;100.00
35577;BME280;21680;52.400;16.920;2023-04-01T06:06:13;98880.05;;;8.00;100.00
35577;BME280;21680;52.400;16.920;2023-04-01T06:08:40;98884.73;;;8.00;100.00
35577;BME280;21680;52.400;16.920;2023-04-01T06:11:40;98886.52;;;8.00;100.00
35577;BME280;21680;52.400;16.920;2023-04-01T06:14:44;98888.88;;;8.01;100.00
35577;BME280;21680;52.400;16.920;2023-04-01T06:23:10;98892.71;;;7.97;100.00
35577;BME280;21680;52.400;16.920;2023-04-01T06:39:54;98909.95;;;8.00;100.00
35577;BME280;21680;52.400;16.920;2023-04-01T06:45:32;98911.45;;;8.08;100.00
35577;BME280;21680;52.400;16.920;2023-04-01T06:53:56;98920.20;;;8.10;100.00
35577;BME280;21680;52.400;16.920;2023-04-01T06:56:26;98922.27;;;8.11;100.00
35577;BME280;21680;52.400;16.920;2023-04-01T06:58:56;98920.00;;;8.13;100.00
35577;BME280;21680;52.400;16.920;2023-04-01T07:01:29;98922.71;;;8.19;100.00
35577;BME280;21680;52.400;16.920;2023-04-01T07:04:43;98923.53;;;8.23;100.00
35577;BME280;21680;52.400;16.920;2023-04-01T07:10:05;98931.96;;;8.27;100.00
35577;BME280;21680;52.400;16.920;2023-04-01T07:12:53;98929.14;;;8.30;100.00
35577;BME280;21680;52.400;16.920;2023-04-01T07:15:38;98932.61;;;8.31;100.00
35577;BME280;21680;52.400;16.920;2023-04-01T07:18:14;98935.57;;;8.33;100.00
35577;BME280;21680;52.400;16.920;2023-04-01T07:20:41;98937.32;;;8.36;100.00
35577;BME280;21680;52.400;16.920;2023-04-01T07:23:16;98941.31;;;8.38;100.00
35577;BME280;21680;52.400;16.920;2023-04-01T07:25:48;98946.08;;;8.41;100.00
35577;BME280;21680;52.400;16.920;2023-04-01T07:28:16;98946.60;;;8.44;100.00
35577;BME280;21680;52.400;16.920;2023-04-01T07:33:38;98949.23;;;8.45;100.00
35577;BME280;21680;52.400;16.920;2023-04-01T07:36:16;98950.06;;;8.43;100.00
35577;BME280;21680;52.400;16.920;2023-04-01T07:41:33;98953.89;;;8.38;100.00
35577;BME280;21680;52.400;16.920;2023-04-01T07:44:36;98956.16;;;8.39;100.00
35577;BME280;21680;52.400;16.920;2023-04-01T07:47:10;98960.59;;;8.46;100.00
35577;BME280;21680;52.400;16.920;2023-04-01T07:49:47;98963.90;;;8.52;100.00
35577;BME280;21680;52.400;16.920;2023-04-01T07:52:32;98965.73;;;8.60;100.00
35577;BME280;21680;52.400;16.920;2023-04-01T07:55:11;98965.68;;;8.67;100.00
35577;BME280;21680;52.400;16.920;2023-04-01T08:00:31;98974.64;;;8.80;100.00
35577;BME280;21680;52.400;16.920;2023-04-01T08:03:51;98976.84;;;8.85;100.00
35577;BME280;21680;52.400;16.920;2023-04-01T08:09:36;98987.20;;;8.96;100.00
35577;BME280;21680;52.400;16.920;2023-04-01T08:12:13;98989.94;;;9.06;100.00
35577;BME280;21680;52.400;16.920;2023-04-01T08:17:38;98993.96;;;9.15;100.00
35577;BME280;21680;52.400;16.920;2023-04-01T08:23:06;99004.27;;;9.21;100.00
35577;BME280;21680;52.400;16.920;2023-04-01T08:25:39;99005.50;;;9.21;100.00
35577;BME280;21680;52.400;16.920;2023-04-01T08:31:05;99010.02;;;9.29;100.00
35577;BME280;21680;52.400;16.920;2023-04-01T08:33:35;99011.17;;;9.35;100.00
35577;BME280;21680;52.400;16.920;2023-04-01T08:36:20;99011.77;;;9.35;100.00
35577;BME280;21680;52.400;16.920;2023-04-01T08:44:54;99023.41;;;9.20;100.00
35577;BME280;21680;52.400;16.920;2023-04-01T08:53:19;99034.59;;;8.98;100.00
35577;BME280;21680;52.400;16.920;2023-04-01T08:56:28;99033.89;;;8.92;100.00
35577;BME280;21680;52.400;16.920;2023-04-01T08:59:27;99033.73;;;9.03;100.00
35577;BME280;21680;52.400;16.920;2023-04-01T09:02:29;99037.03;;;9.10;100.00
35577;BME280;21680;52.400;16.920;2023-04-01T09:08:07;99042.78;;;9.15;100.00
35577;BME280;21680;52.400;16.920;2023-04-01T09:19:33;99060.27;;;9.09;100.00
35577;BME280;21680;52.400;16.920;2023-04-01T09:39:21;99088.88;;;9.16;100.00
35577;BME280;21680;52.400;16.920;2023-04-01T09:42:07;99088.98;;;9.17;100.00
35577;BME280;21680;52.400;16.920;2023-04-01T09:44:49;99095.42;;;9.17;100.00
35577;BME280;21680;52.400;16.920;2023-04-01T09:50:30;99103.92;;;9.01;100.00
35577;BME280;21680;52.400;16.920;2023-04-01T09:53:04;99105.27;;;8.93;100.00
35577;BME280;21680;52.400;16.920;2023-04-01T09:55:47;99108.02;;;8.86;100.00
35577;BME280;21680;52.400;16.920;2023-04-01T10:01:27;99119.11;;;8.68;100.00
35577;BME280;21680;52.400;16.920;2023-04-01T10:10:30;99133.88;;;8.59;100.00
35577;BME280;21680;52.400;16.920;2023-04-01T10:19:15;99143.26;;;8.57;100.00
35577;BME280;21680;52.400;16.920;2023-04-01T10:22:00;99147.31;;;8.64;100.00
35577;BME280;21680;52.400;16.920;2023-04-01T10:24:57;99146.94;;;8.70;100.00
35577;BME280;21680;52.400;16.920;2023-04-01T10:28:04;99150.27;;;8.59;100.00
35577;BME280;21680;52.400;16.920;2023-04-01T10:50:13;99167.09;;;8.49;100.00
35577;BME280;21680;52.400;16.920;2023-04-01T10:53:20;99171.09;;;8.56;100.00
35577;BME280;21680;52.400;16.920;2023-04-01T11:01:59;99176.05;;;8.50;100.00
35577;BME280;21680;52.400;16.920;2023-04-01T11:15:48;99183.35;;;8.69;100.00
35577;BME280;21680;52.400;16.920;2023-04-01T11:27:32;99191.23;;;8.68;100.00
35577;BME280;21680;52.400;16.920;2023-04-01T11:30:12;99194.56;;;8.71;100.00
35577;BME280;21680;52.400;16.920;2023-04-01T11:33:14;99193.02;;;8.79;100.00
35577;BME280;21680;52.400;16.920;2023-04-01T11:35:59;99196.54;;;8.87;100.00
35577;BME280;21680;52.400;16.920;2023-04-01T11:41:47;99202.02;;;8.81;100.00
35577;BME280;21680;52.400;16.920;2023-04-01T11:52:21;99213.98;;;9.19;100.00
35577;BME280;21680;52.400;16.920;2023-04-01T11:55:15;99217.23;;;9.19;100.00
35577;BME280;21680;52.400;16.920;2023-04-01T12:03:38;99236.12;;;8.98;100.00
35577;BME280;21680;52.400;16.920;2023-04-01T12:06:16;99239.27;;;8.87;100.00
35577;BME280;21680;52.400;16.920;2023-04-01T12:08:54;99246.65;;;8.79;100.00
35577;BME280;21680;52.400;16.920;2023-04-01T12:15:14;99251.09;;;8.61;100.00
35577;BME280;21680;52.400;16.920;2023-04-01T12:17:39;99256.59;;;8.58;100.00
35577;BME280;21680;52.400;16.920;2023-04-01T12:22:53;99259.15;;;8.38;100.00
35577;BME280;21680;52.400;16.920;2023-04-01T12:28:50;99264.98;;;8.26;100.00
35577;BME280;21680;52.400;16.920;2023-04-01T12:31:32;99267.42;;;8.24;100.00
35577;BME280;21680;52.400;16.920;2023-04-01T12:39:48;99278.73;;;8.19;100.00
35577;BME280;21680;52.400;16.920;2023-04-01T12:45:35;99280.64;;;8.23;100.00
35577;BME280;21680;52.400;16.920;2023-04-01T12:48:09;99285.06;;;8.20;100.00
35577;BME280;21680;52.400;16.920;2023-04-01T12:55:40;99295.04;;;8.13;100.00
35577;BME280;21680;52.400;16.920;2023-04-01T12:58:31;99302.80;;;8.14;100.00
35577;BME280;21680;52.400;16.920;2023-04-01T13:01:19;99303.24;;;8.16;100.00
35577;BME280;21680;52.400;16.920;2023-04-01T13:07:09;99310.54;;;8.26;100.00
35577;BME280;21680;52.400;16.920;2023-04-01T13:12:36;99309.53;;;8.35;100.00
35577;BME280;21680;52.400;16.920;2023-04-01T13:18:02;99316.41;;;8.39;100.00
35577;BME280;21680;52.400;16.920;2023-04-01T13:28:34;99328.89;;;8.26;100.00
35577;BME280;21680;52.400;16.920;2023-04-01T13:31:49;99333.13;;;8.26;100.00
35577;BME280;21680;52.400;16.920;2023-04-01T13:39:35;99334.27;;;8.28;100.00
35577;BME280;21680;52.400;16.920;2023-04-01T13:45:13;99338.20;;;8.31;100.00
35577;BME280;21680;52.400;16.920;2023-04-01T13:54:39;99335.81;;;8.39;100.00
35577;BME280;21680;52.400;16.920;2023-04-01T13:57:33;99339.80;;;8.41;100.00
35577;BME280;21680;52.400;16.920;2023-04-01T14:03:32;99342.96;;;8.36;100.00
35577;BME280;21680;52.400;16.920;2023-04-01T14:06:13;99346.98;;;8.34;100.00
35577;BME280;21680;52.400;16.920;2023-04-01T14:11:13;99348.92;;;8.34;100.00
35577;BME280;21680;52.400;16.920;2023-04-01T14:14:04;99355.45;;;8.32;100.00
35577;BME280;21680;52.400;16.920;2023-04-01T14:22:24;99365.79;;;8.24;100.00
35577;BME280;21680;52.400;16.920;2023-04-01T14:25:14;99368.09;;;8.25;100.00
35577;BME280;21680;52.400;16.920;2023-04-01T14:30:41;99367.92;;;8.25;100.00
35577;BME280;21680;52.400;16.920;2023-04-01T14:36:02;99378.59;;;8.31;100.00
35577;BME280;21680;52.400;16.920;2023-04-01T14:38:45;99379.73;;;8.30;100.00
35577;BME280;21680;52.400;16.920;2023-04-01T14:41:38;99380.42;;;8.24;100.00
35577;BME280;21680;52.400;16.920;2023-04-01T14:44:18;99386.23;;;8.22;100.00
35577;BME280;21680;52.400;16.920;2023-04-01T14:49:46;99394.50;;;8.23;100.00
35577;BME280;21680;52.400;16.920;2023-04-01T14:54:47;99404.31;;;8.16;100.00
35577;BME280;21680;52.400;16.920;2023-04-01T14:59:54;99409.68;;;8.12;100.00
35577;BME280;21680;52.400;16.920;2023-04-01T15:05:29;99412.96;;;8.21;100.00
35577;BME280;21680;52.400;16.920;2023-04-01T15:11:03;99418.44;;;8.15;100.00
35577;BME280;21680;52.400;16.920;2023-04-01T15:24:45;99438.05;;;7.97;100.00
35577;BME280;21680;52.400;16.920;2023-04-01T15:27:24;99441.20;;;7.95;100.00
35577;BME280;21680;52.400;16.920;2023-04-01T15:33:19;99453.10;;;7.95;100.00
35577;BME280;21680;52.400;16.920;2023-04-01T15:36:01;99456.27;;;7.89;100.00
35577;BME280;21680;52.400;16.920;2023-04-01T15:39:23;99460.42;;;7.84;100.00
35577;BME280;21680;52.400;16.920;2023-04-01T15:42:10;99466.77;;;7.76;100.00
35577;BME280;21680;52.400;16.920;2023-04-01T15:50:23;99477.54;;;7.60;99.99
35577;BME280;21680;52.400;16.920;2023-04-01T15:55:37;99486.57;;;7.53;99.96
35577;BME280;21680;52.400;16.920;2023-04-01T16:04:43;99494.91;;;7.53;99.94
35577;BME280;21680;52.400;16.920;2023-04-01T16:10:36;99502.22;;;7.53;99.98
35577;BME280;21680;52.400;16.920;2023-04-01T16:15:42;99512.67;;;7.50;99.85
35577;BME280;21680;52.400;16.920;2023-04-01T16:20:55;99514.97;;;7.50;99.75
35577;BME280;21680;52.400;16.920;2023-04-01T16:23:29;99522.98;;;7.50;99.79
35577;BME280;21680;52.400;16.920;2023-04-01T16:26:26;99523.70;;;7.50;99.78
35577;BME280;21680;52.400;16.920;2023-04-01T16:29:17;99527.03;;;7.51;99.89
35577;BME280;21680;52.400;16.920;2023-04-01T16:31:50;99534.85;;;7.47;99.61
35577;BME280;21680;52.400;16.920;2023-04-01T16:34:30;99537.80;;;7.41;99.38
35577;BME280;21680;52.400;16.920;2023-04-01T16:37:20;99546.92;;;7.36;99.66
35577;BME280;21680;52.400;16.920;2023-04-01T16:39:50;99547.21;;;7.34;99.45
35577;BME280;21680;52.400;16.920;2023-04-01T16:48:13;99565.69;;;7.27;99.37
35577;BME280;21680;52.400;16.920;2023-04-01T16:50:43;99573.83;;;7.24;99.31
35577;BME280;21680;52.400;16.920;2023-04-01T16:55:54;99577.48;;;7.14;99.14
35577;BME280;21680;52.400;16.920;2023-04-01T16:58:36;99580.11;;;7.11;99.14
35577;BME280;21680;52.400;16.920;2023-04-01T17:01:14;99587.88;;;7.04;98.89
35577;BME280;21680;52.400;16.920;2023-04-01T17:03:46;99594.42;;;7.01;99.09
35577;BME280;21680;52.400;16.920;2023-04-01T17:06:22;99595.30;;;7.01;99.18
35577;BME280;21680;52.400;16.920;2023-04-01T17:14:36;99611.10;;;6.94;98.87
35577;BME280;21680;52.400;16.920;2023-04-01T17:17:35;99616.77;;;6.90;98.69
35577;BME280;21680;52.400;16.920;2023-04-01T17:28:57;99634.27;;;6.68;98.27
35577;BME280;21680;52.400;16.920;2023-04-01T17:31:42;99629.95;;;6.61;98.03
35577;BME280;21680;52.400;16.920;2023-04-01T17:34:16;99636.23;;;6.56;98.10
35577;BME280;21680;52.400;16.920;2023-04-01T17:37:04;99640.84;;;6.51;97.99
35577;BME280;21680;52.400;16.920;2023-04-01T17:39:50;99643.89;;;6.46;97.86
35577;BME280;21680;52.400;16.920;2023-04-01T17:42:34;99640.85;;;6.38;97.58
35577;BME280;21680;52.400;16.920;2023-04-01T17:50:58;99652.59;;;6.29;97.50
35577;BME280;21680;52.400;16.920;2023-04-01T17:53:35;99655.34;;;6.27;97.41
35577;BME280;21680;52.400;16.920;2023-04-01T17:56:14;99661.38;;;6.23;97.29
35577;BME280;21680;52.400;16.920;2023-04-01T17:58:50;99667.75;;;6.18;97.15
35577;BME280;21680;52.400;16.920;2023-04-01T18:04:07;99682.38;;;6.17;97.19
35577;BME280;21680;52.400;16.920;2023-04-01T18:21:07;99697.79;;;6.00;96.77
35577;BME280;21680;52.400;16.920;2023-04-01T18:23:57;99704.71;;;5.95;96.74
35577;BME280;21680;52.400;16.920;2023-04-01T18:26:31;99708.94;;;5.91;96.72
35577;BME280;21680;52.400;16.920;2023-04-01T18:29:24;99709.66;;;5.85;96.69
35577;BME280;21680;52.400;16.920;2023-04-01T18:32:11;99720.30;;;5.76;96.24
35577;BME280;21680;52.400;16.920;2023-04-01T18:34:54;99720.59;;;5.73;96.50
35577;BME280;21680;52.400;16.920;2023-04-01T18:37:30;99726.52;;;5.72;96.15
35577;BME280;21680;52.400;16.920;2023-04-01T18:40:24;99731.41;;;5.69;96.09
35577;BME280;21680;52.400;16.920;2023-04-01T18:45:57;99745.66;;;5.52;95.69
35577;BME280;21680;52.400;16.920;2023-04-01T18:48:52;99756.23;;;5.44;95.57
35577;BME280;21680;52.400;16.920;2023-04-01T18:51:49;99762.27;;;5.39;95.41
35577;BME280;21680;52.400;16.920;2023-04-01T18:54:14;99767.23;;;5.35;95.03
35577;BME280;21680;52.400;16.920;2023-04-01T18:56:43;99774.06;;;5.27;94.83
35577;BME280;21680;52.400;16.920;2023-04-01T18:59:32;99774.45;;;5.21;94.85
35577;BME280;21680;52.400;16.920;2023-04-01T19:02:24;99778.77;;;5.19;94.52
35577;BME280;21680;52.400;16.920;2023-04-01T19:05:19;99787.90;;;5.17;94.79
35577;BME280;21680;52.400;16.920;2023-04-01T19:07:50;99788.82;;;5.16;94.79
35577;BME280;21680;52.400;16.920;2023-04-01T19:10:46;99792.02;;;5.16;94.64
35577;BME280;21680;52.400;16.920;2023-04-01T19:24:30;99805.92;;;5.08;94.50
35577;BME280;21680;52.400;16.920;2023-04-01T19:27:08;99808.48;;;5.06;94.50
35577;BME280;21680;52.400;16.920;2023-04-01T19:30:21;99811.35;;;5.05;94.57
35577;BME280;21680;52.400;16.920;2023-04-01T19:38:01;99823.80;;;4.98;94.28
35577;BME280;21680;52.400;16.920;2023-04-01T19:43:02;99828.57;;;4.93;94.48
35577;BME280;21680;52.400;16.920;2023-04-01T19:45:46;99830.05;;;4.91;94.48
35577;BME280;21680;52.400;16.920;2023-04-01T19:50:53;99841.63;;;4.83;94.57
35577;BME280;21680;52.400;16.920;2023-04-01T19:53:25;99844.30;;;4.83;94.45